sensor_id;sensor_type;location;lat;lon;timestamp;P1;durP1;ratioP1;P2;durP2;ratioP2
69197;SDS011;56311;50.298;8.514;2022-12-18T00:01:57;43.17;;;19.52;;
69197;SDS011;56311;50.298;8.514;2022-12-18T00:04:29;45.83;;;20.98;;
69197;SDS011;56311;50.298;8.514;2022-12-18T00:06:55;38.95;;;18.55;;
69197;SDS011;56311;50.298;8.514;2022-12-18T00:09:22;43.08;;;19.63;;
69197;SDS011;56311;50.298;8.514;2022-12-18T00:11:56;38.75;;;18.75;;
69197;SDS011;56311;50.298;8.514;2022-12-18T00:14:23;43.15;;;17.63;;
69197;SDS011;56311;50.298;8.514;2022-12-18T00:16:50;42.60;;;18.00;;
69197;SDS011;56311;50.298;8.514;2022-12-18T00:19:18;41.70;;;17.67;;
69197;SDS011;56311;50.298;8.514;2022-12-18T00:21:45;36.38;;;16.80;;
69197;SDS011;56311;50.298;8.514;2022-12-18T00:24:11;37.40;;;18.13;;
69197;SDS011;56311;50.298;8.514;2022-12-18T00:26:41;43.05;;;18.55;;
69197;SDS011;56311;50.298;8.514;2022-12-18T00:29:10;39.00;;;18.33;;
69197;SDS011;56311;50.298;8.514;2022-12-18T00:31:40;41.30;;;19.08;;
69197;SDS011;56311;50.298;8.514;2022-12-18T00:34:09;40.33;;;19.25;;
69197;SDS011;56311;50.298;8.514;2022-12-18T00:36:42;41.17;;;19.10;;
69197;SDS011;56311;50.298;8.514;2022-12-18T00:39:09;38.88;;;18.98;;
69197;SDS011;56311;50.298;8.514;2022-12-18T00:41:37;39.88;;;19.10;;
69197;SDS011;56311;50.298;8.514;2022-12-18T00:44:22;35.08;;;18.15;;
69197;SDS011;56311;50.298;8.514;2022-12-18T00:46:49;33.80;;;17.20;;
69197;SDS011;56311;50.298;8.514;2022-12-18T00:49:16;37.67;;;18.52;;
69197;SDS011;56311;50.298;8.514;2022-12-18T00:51:46;35.60;;;17.33;;
69197;SDS011;56311;50.298;8.514;2022-12-18T00:54:13;37.50;;;16.95;;
69197;SDS011;56311;50.298;8.514;2022-12-18T00:56:40;38.30;;;17.35;;
69197;SDS011;56311;50.298;8.514;2022-12-18T00:59:15;34.72;;;17.00;;
69197;SDS011;56311;50.298;8.514;2022-12-18T01:01:42;40.35;;;17.60;;
69197;SDS011;56311;50.298;8.514;2022-12-18T01:04:11;39.58;;;18.00;;
69197;SDS011;56311;50.298;8.514;2022-12-18T01:06:37;35.80;;;17.85;;
69197;SDS011;56311;50.298;8.514;2022-12-18T01:09:06;75.40;;;35.63;;
69197;SDS011;56311;50.298;8.514;2022-12-18T01:11:33;74.55;;;34.72;;
69197;SDS011;56311;50.298;8.514;2022-12-18T01:14:00;37.53;;;17.73;;
69197;SDS011;56311;50.298;8.514;2022-12-18T01:16:27;37.33;;;16.45;;
69197;SDS011;56311;50.298;8.514;2022-12-18T01:18:54;33.95;;;16.85;;
69197;SDS011;56311;50.298;8.514;2022-12-18T01:21:21;35.25;;;16.35;;
69197;SDS011;56311;50.298;8.514;2022-12-18T01:23:53;38.17;;;17.75;;
69197;SDS011;56311;50.298;8.514;2022-12-18T01:26:23;32.78;;;16.42;;
69197;SDS011;56311;50.298;8.514;2022-12-18T01:28:51;33.88;;;17.13;;
69197;SDS011;56311;50.298;8.514;2022-12-18T01:31:20;32.85;;;16.23;;
69197;SDS011;56311;50.298;8.514;2022-12-18T01:33:49;32.30;;;16.73;;
69197;SDS011;56311;50.298;8.514;2022-12-18T01:36:17;30.65;;;14.30;;
69197;SDS011;56311;50.298;8.514;2022-12-18T01:38:45;33.42;;;16.73;;
69197;SDS011;56311;50.298;8.514;2022-12-18T01:41:13;37.15;;;17.20;;
69197;SDS011;56311;50.298;8.514;2022-12-18T01:43:43;35.95;;;16.83;;
69197;SDS011;56311;50.298;8.514;2022-12-18T01:46:11;38.60;;;16.40;;
69197;SDS011;56311;50.298;8.514;2022-12-18T01:48:38;35.65;;;15.98;;
69197;SDS011;56311;50.298;8.514;2022-12-18T01:51:06;34.10;;;14.40;;
69197;SDS011;56311;50.298;8.514;2022-12-18T01:53:35;33.67;;;15.82;;
69197;SDS011;56311;50.298;8.514;2022-12-18T01:56:04;33.55;;;15.02;;
69197;SDS011;56311;50.298;8.514;2022-12-18T01:58:32;34.10;;;15.85;;
69197;SDS011;56311;50.298;8.514;2022-12-18T02:01:08;35.05;;;15.60;;
69197;SDS011;56311;50.298;8.514;2022-12-18T02:03:35;32.53;;;14.82;;
69197;SDS011;56311;50.298;8.514;2022-12-18T02:06:06;34.63;;;15.23;;
69197;SDS011;56311;50.298;8.514;2022-12-18T02:11:08;37.38;;;14.00;;
69197;SDS011;56311;50.298;8.514;2022-12-18T02:16:15;28.67;;;12.73;;
69197;SDS011;56311;50.298;8.514;2022-12-18T02:18:48;30.65;;;13.77;;
69197;SDS011;56311;50.298;8.514;2022-12-18T02:21:22;30.25;;;13.57;;
69197;SDS011;56311;50.298;8.514;2022-12-18T02:23:59;28.23;;;12.88;;
69197;SDS011;56311;50.298;8.514;2022-12-18T02:26:45;29.77;;;13.20;;
69197;SDS011;56311;50.298;8.514;2022-12-18T02:29:15;27.65;;;13.57;;
69197;SDS011;56311;50.298;8.514;2022-12-18T02:31:47;32.45;;;14.30;;
69197;SDS011;56311;50.298;8.514;2022-12-18T02:34:18;31.85;;;14.18;;
69197;SDS011;56311;50.298;8.514;2022-12-18T02:36:47;32.33;;;13.30;;
69197;SDS011;56311;50.298;8.514;2022-12-18T02:39:16;28.92;;;13.25;;
69197;SDS011;56311;50.298;8.514;2022-12-18T02:41:45;31.23;;;13.50;;
69197;SDS011;56311;50.298;8.514;2022-12-18T02:44:13;32.15;;;14.50;;
69197;SDS011;56311;50.298;8.514;2022-12-18T02:46:41;30.33;;;12.85;;
69197;SDS011;56311;50.298;8.514;2022-12-18T02:49:12;25.65;;;12.27;;
69197;SDS011;56311;50.298;8.514;2022-12-18T02:51:50;32.85;;;12.77;;
69197;SDS011;56311;50.298;8.514;2022-12-18T02:54:22;28.27;;;12.70;;
69197;SDS011;56311;50.298;8.514;2022-12-18T02:57:01;26.13;;;12.20;;
69197;SDS011;56311;50.298;8.514;2022-12-18T02:59:38;29.77;;;11.98;;
69197;SDS011;56311;50.298;8.514;2022-12-18T03:02:10;30.73;;;13.13;;
69197;SDS011;56311;50.298;8.514;2022-12-18T03:04:47;25.05;;;11.57;;
69197;SDS011;56311;50.298;8.514;2022-12-18T03:07:36;24.70;;;11.48;;
69197;SDS011;56311;50.298;8.514;2022-12-18T03:10:06;27.92;;;12.85;;
69197;SDS011;56311;50.298;8.514;2022-12-18T03:12:37;28.52;;;11.77;;
69197;SDS011;56311;50.298;8.514;2022-12-18T03:15:08;26.90;;;12.18;;
69197;SDS011;56311;50.298;8.514;2022-12-18T03:17:44;27.65;;;12.55;;
69197;SDS011;56311;50.298;8.514;2022-12-18T03:20:17;25.05;;;11.48;;
69197;SDS011;56311;50.298;8.514;2022-12-18T03:22:49;27.63;;;11.27;;
69197;SDS011;56311;50.298;8.514;2022-12-18T03:25:19;26.52;;;11.55;;
69197;SDS011;56311;50.298;8.514;2022-12-18T03:27:51;24.05;;;11.80;;
69197;SDS011;56311;50.298;8.514;2022-12-18T03:30:22;25.70;;;11.20;;
69197;SDS011;56311;50.298;8.514;2022-12-18T03:32:50;25.30;;;10.88;;
69197;SDS011;56311;50.298;8.514;2022-12-18T03:35:29;23.63;;;10.57;;
69197;SDS011;56311;50.298;8.514;2022-12-18T03:38:00;25.67;;;10.80;;
69197;SDS011;56311;50.298;8.514;2022-12-18T03:40:28;22.75;;;11.32;;
69197;SDS011;56311;50.298;8.514;2022-12-18T03:43:03;24.92;;;11.07;;
69197;SDS011;56311;50.298;8.514;2022-12-18T03:45:37;28.95;;;11.55;;
69197;SDS011;56311;50.298;8.514;2022-12-18T03:48:08;22.75;;;10.85;;
69197;SDS011;56311;50.298;8.514;2022-12-18T03:50:44;23.45;;;10.60;;
69197;SDS011;56311;50.298;8.514;2022-12-18T03:53:18;25.33;;;11.43;;
69197;SDS011;56311;50.298;8.514;2022-12-18T03:55:55;20.48;;;9.60;;
69197;SDS011;56311;50.298;8.514;2022-12-18T03:58:25;23.33;;;11.18;;
69197;SDS011;56311;50.298;8.514;2022-12-18T04:00:53;25.85;;;10.82;;
69197;SDS011;56311;50.298;8.514;2022-12-18T04:03:23;23.13;;;10.65;;
69197;SDS011;56311;50.298;8.514;2022-12-18T04:05:52;26.27;;;10.40;;
69197;SDS011;56311;50.298;8.514;2022-12-18T04:08:21;23.27;;;10.65;;
69197;SDS011;56311;50.298;8.514;2022-12-18T04:10:50;28.77;;;11.65;;
69197;SDS011;56311;50.298;8.514;2022-12-18T04:13:21;21.80;;;10.18;;
69197;SDS011;56311;50.298;8.514;2022-12-18T04:15:49;22.98;;;10.27;;
69197;SDS011;56311;50.298;8.514;2022-12-18T04:18:16;20.15;;;9.80;;
69197;SDS011;56311;50.298;8.514;2022-12-18T04:20:43;20.23;;;10.15;;
69197;SDS011;56311;50.298;8.514;2022-12-18T04:23:09;24.17;;;10.50;;
69197;SDS011;56311;50.298;8.514;2022-12-18T04:25:36;20.48;;;10.10;;
69197;SDS011;56311;50.298;8.514;2022-12-18T04:28:03;23.33;;;9.57;;
69197;SDS011;56311;50.298;8.514;2022-12-18T04:30:30;23.13;;;9.80;;
69197;SDS011;56311;50.298;8.514;2022-12-18T04:32:58;22.20;;;9.55;;
69197;SDS011;56311;50.298;8.514;2022-12-18T04:35:24;25.13;;;9.90;;
69197;SDS011;56311;50.298;8.514;2022-12-18T04:37:51;20.98;;;9.48;;
69197;SDS011;56311;50.298;8.514;2022-12-18T04:40:18;19.60;;;9.68;;
69197;SDS011;56311;50.298;8.514;2022-12-18T04:42:45;25.05;;;10.43;;
69197;SDS011;56311;50.298;8.514;2022-12-18T04:45:11;20.92;;;9.90;;
69197;SDS011;56311;50.298;8.514;2022-12-18T04:47:38;21.00;;;9.80;;
69197;SDS011;56311;50.298;8.514;2022-12-18T04:50:07;21.67;;;10.25;;
69197;SDS011;56311;50.298;8.514;2022-12-18T04:52:34;24.10;;;9.43;;
69197;SDS011;56311;50.298;8.514;2022-12-18T04:55:00;22.67;;;10.32;;
69197;SDS011;56311;50.298;8.514;2022-12-18T04:57:27;22.45;;;9.48;;
69197;SDS011;56311;50.298;8.514;2022-12-18T04:59:54;21.90;;;9.40;;
69197;SDS011;56311;50.298;8.514;2022-12-18T05:02:20;19.33;;;10.05;;
69197;SDS011;56311;50.298;8.514;2022-12-18T05:04:47;28.83;;;10.00;;
69197;SDS011;56311;50.298;8.514;2022-12-18T05:07:15;24.83;;;10.18;;
69197;SDS011;56311;50.298;8.514;2022-12-18T05:09:42;20.27;;;9.82;;
69197;SDS011;56311;50.298;8.514;2022-12-18T05:12:10;19.58;;;9.27;;
69197;SDS011;56311;50.298;8.514;2022-12-18T05:14:36;23.52;;;10.13;;
69197;SDS011;56311;50.298;8.514;2022-12-18T05:17:03;27.25;;;10.00;;
69197;SDS011;56311;50.298;8.514;2022-12-18T05:19:30;25.70;;;11.20;;
69197;SDS011;56311;50.298;8.514;2022-12-18T05:21:56;23.40;;;10.82;;
69197;SDS011;56311;50.298;8.514;2022-12-18T05:24:25;22.85;;;10.02;;
69197;SDS011;56311;50.298;8.514;2022-12-18T05:26:51;25.63;;;10.82;;
69197;SDS011;56311;50.298;8.514;2022-12-18T05:29:18;23.77;;;10.57;;
69197;SDS011;56311;50.298;8.514;2022-12-18T05:31:45;23.73;;;11.48;;
69197;SDS011;56311;50.298;8.514;2022-12-18T05:34:11;18.73;;;10.32;;
69197;SDS011;56311;50.298;8.514;2022-12-18T05:36:39;19.38;;;9.80;;
69197;SDS011;56311;50.298;8.514;2022-12-18T05:39:06;22.60;;;9.32;;
69197;SDS011;56311;50.298;8.514;2022-12-18T05:41:34;28.52;;;10.70;;
69197;SDS011;56311;50.298;8.514;2022-12-18T05:44:01;23.88;;;11.40;;
69197;SDS011;56311;50.298;8.514;2022-12-18T05:46:28;27.38;;;11.50;;
69197;SDS011;56311;50.298;8.514;2022-12-18T05:48:58;25.48;;;12.10;;
69197;SDS011;56311;50.298;8.514;2022-12-18T05:51:25;25.15;;;11.77;;
69197;SDS011;56311;50.298;8.514;2022-12-18T05:53:53;22.40;;;11.07;;
69197;SDS011;56311;50.298;8.514;2022-12-18T05:56:20;25.52;;;11.38;;
69197;SDS011;56311;50.298;8.514;2022-12-18T05:58:52;20.88;;;10.05;;
69197;SDS011;56311;50.298;8.514;2022-12-18T06:01:20;25.73;;;12.02;;
69197;SDS011;56311;50.298;8.514;2022-12-18T06:03:49;29.42;;;13.60;;
69197;SDS011;56311;50.298;8.514;2022-12-18T06:06:17;29.92;;;13.40;;
69197;SDS011;56311;50.298;8.514;2022-12-18T06:08:45;27.85;;;12.73;;
69197;SDS011;56311;50.298;8.514;2022-12-18T06:11:12;28.30;;;11.68;;
69197;SDS011;56311;50.298;8.514;2022-12-18T06:13:39;26.52;;;12.38;;
69197;SDS011;56311;50.298;8.514;2022-12-18T06:16:08;31.67;;;13.70;;
69197;SDS011;56311;50.298;8.514;2022-12-18T06:18:37;28.67;;;12.35;;
69197;SDS011;56311;50.298;8.514;2022-12-18T06:21:04;33.92;;;13.88;;
69197;SDS011;56311;50.298;8.514;2022-12-18T06:23:31;34.13;;;14.00;;
69197;SDS011;56311;50.298;8.514;2022-12-18T06:26:05;31.08;;;14.30;;
69197;SDS011;56311;50.298;8.514;2022-12-18T06:28:32;32.38;;;14.38;;
69197;SDS011;56311;50.298;8.514;2022-12-18T06:30:58;36.35;;;13.85;;
69197;SDS011;56311;50.298;8.514;2022-12-18T06:33:27;33.63;;;13.98;;
69197;SDS011;56311;50.298;8.514;2022-12-18T06:35:54;30.30;;;13.80;;
69197;SDS011;56311;50.298;8.514;2022-12-18T06:38:26;32.35;;;14.02;;
69197;SDS011;56311;50.298;8.514;2022-12-18T06:40:53;30.73;;;13.35;;
69197;SDS011;56311;50.298;8.514;2022-12-18T06:43:20;30.38;;;13.98;;
69197;SDS011;56311;50.298;8.514;2022-12-18T06:45:46;28.45;;;12.93;;
69197;SDS011;56311;50.298;8.514;2022-12-18T06:48:18;31.10;;;13.73;;
69197;SDS011;56311;50.298;8.514;2022-12-18T06:50:47;25.92;;;12.80;;
69197;SDS011;56311;50.298;8.514;2022-12-18T06:53:14;30.92;;;13.82;;
69197;SDS011;56311;50.298;8.514;2022-12-18T06:55:40;32.67;;;13.73;;
69197;SDS011;56311;50.298;8.514;2022-12-18T06:58:07;27.63;;;13.40;;
69197;SDS011;56311;50.298;8.514;2022-12-18T07:00:36;30.15;;;13.60;;
69197;SDS011;56311;50.298;8.514;2022-12-18T07:03:03;29.10;;;13.55;;
69197;SDS011;56311;50.298;8.514;2022-12-18T07:05:30;28.35;;;13.18;;
69197;SDS011;56311;50.298;8.514;2022-12-18T07:07:58;27.48;;;12.75;;
69197;SDS011;56311;50.298;8.514;2022-12-18T07:10:25;29.77;;;14.70;;
69197;SDS011;56311;50.298;8.514;2022-12-18T07:12:52;32.35;;;13.32;;
69197;SDS011;56311;50.298;8.514;2022-12-18T07:15:19;25.83;;;12.07;;
69197;SDS011;56311;50.298;8.514;2022-12-18T07:17:46;31.00;;;11.93;;
69197;SDS011;56311;50.298;8.514;2022-12-18T07:20:12;28.23;;;12.20;;
69197;SDS011;56311;50.298;8.514;2022-12-18T07:22:39;28.38;;;12.73;;
69197;SDS011;56311;50.298;8.514;2022-12-18T07:25:08;29.33;;;13.18;;
69197;SDS011;56311;50.298;8.514;2022-12-18T07:27:34;26.17;;;12.32;;
69197;SDS011;56311;50.298;8.514;2022-12-18T07:30:01;26.27;;;12.75;;
69197;SDS011;56311;50.298;8.514;2022-12-18T07:32:29;28.88;;;13.80;;
69197;SDS011;56311;50.298;8.514;2022-12-18T07:34:56;26.75;;;12.25;;
69197;SDS011;56311;50.298;8.514;2022-12-18T07:37:23;22.38;;;11.75;;
69197;SDS011;56311;50.298;8.514;2022-12-18T07:39:49;24.35;;;11.15;;
69197;SDS011;56311;50.298;8.514;2022-12-18T07:42:18;25.65;;;10.93;;
69197;SDS011;56311;50.298;8.514;2022-12-18T07:44:56;25.33;;;10.68;;
69197;SDS011;56311;50.298;8.514;2022-12-18T07:47:23;27.05;;;11.18;;
69197;SDS011;56311;50.298;8.514;2022-12-18T07:49:51;26.92;;;12.30;;
69197;SDS011;56311;50.298;8.514;2022-12-18T07:52:17;29.10;;;12.70;;
69197;SDS011;56311;50.298;8.514;2022-12-18T07:54:51;30.52;;;12.35;;
69197;SDS011;56311;50.298;8.514;2022-12-18T07:57:19;25.38;;;12.65;;
69197;SDS011;56311;50.298;8.514;2022-12-18T08:00:06;26.77;;;13.05;;
69197;SDS011;56311;50.298;8.514;2022-12-18T08:02:34;28.42;;;13.50;;
69197;SDS011;56311;50.298;8.514;2022-12-18T08:05:00;27.10;;;12.30;;
69197;SDS011;56311;50.298;8.514;2022-12-18T08:07:27;27.45;;;13.25;;
69197;SDS011;56311;50.298;8.514;2022-12-18T08:09:54;26.75;;;13.05;;
69197;SDS011;56311;50.298;8.514;2022-12-18T08:12:22;24.05;;;12.10;;
69197;SDS011;56311;50.298;8.514;2022-12-18T08:14:49;31.55;;;12.93;;
69197;SDS011;56311;50.298;8.514;2022-12-18T08:17:15;26.95;;;12.70;;
69197;SDS011;56311;50.298;8.514;2022-12-18T08:19:42;26.90;;;12.60;;
69197;SDS011;56311;50.298;8.514;2022-12-18T08:22:09;28.35;;;12.43;;
69197;SDS011;56311;50.298;8.514;2022-12-18T08:24:36;30.90;;;12.77;;
69197;SDS011;56311;50.298;8.514;2022-12-18T08:27:03;26.42;;;12.10;;
69197;SDS011;56311;50.298;8.514;2022-12-18T08:29:51;28.25;;;13.02;;
69197;SDS011;56311;50.298;8.514;2022-12-18T08:32:17;24.73;;;12.35;;
69197;SDS011;56311;50.298;8.514;2022-12-18T08:34:44;25.42;;;12.65;;
69197;SDS011;56311;50.298;8.514;2022-12-18T08:37:11;26.55;;;12.10;;
69197;SDS011;56311;50.298;8.514;2022-12-18T08:39:38;24.15;;;11.85;;
69197;SDS011;56311;50.298;8.514;2022-12-18T08:42:05;23.02;;;11.48;;
69197;SDS011;56311;50.298;8.514;2022-12-18T08:44:52;25.63;;;11.95;;
69197;SDS011;56311;50.298;8.514;2022-12-18T08:47:18;25.40;;;10.95;;
69197;SDS011;56311;50.298;8.514;2022-12-18T08:49:45;22.92;;;11.30;;
69197;SDS011;56311;50.298;8.514;2022-12-18T08:52:12;25.85;;;11.20;;
69197;SDS011;56311;50.298;8.514;2022-12-18T08:54:39;22.48;;;10.93;;
69197;SDS011;56311;50.298;8.514;2022-12-18T08:57:05;25.67;;;12.20;;
69197;SDS011;56311;50.298;8.514;2022-12-18T08:59:32;24.02;;;11.02;;
69197;SDS011;56311;50.298;8.514;2022-12-18T09:02:01;25.08;;;11.25;;
69197;SDS011;56311;50.298;8.514;2022-12-18T09:04:28;23.17;;;9.70;;
69197;SDS011;56311;50.298;8.514;2022-12-18T09:06:54;17.33;;;9.65;;
69197;SDS011;56311;50.298;8.514;2022-12-18T09:09:21;23.73;;;11.75;;
69197;SDS011;56311;50.298;8.514;2022-12-18T09:11:50;24.38;;;10.85;;
69197;SDS011;56311;50.298;8.514;2022-12-18T09:14:17;24.23;;;9.93;;
69197;SDS011;56311;50.298;8.514;2022-12-18T09:16:44;21.63;;;10.75;;
69197;SDS011;56311;50.298;8.514;2022-12-18T09:19:12;25.38;;;12.27;;
69197;SDS011;56311;50.298;8.514;2022-12-18T09:21:39;21.23;;;10.60;;
69197;SDS011;56311;50.298;8.514;2022-12-18T09:24:13;22.40;;;10.95;;
69197;SDS011;56311;50.298;8.514;2022-12-18T09:26:40;22.70;;;10.38;;
69197;SDS011;56311;50.298;8.514;2022-12-18T09:29:12;22.58;;;10.32;;
69197;SDS011;56311;50.298;8.514;2022-12-18T09:31:40;25.10;;;11.35;;
69197;SDS011;56311;50.298;8.514;2022-12-18T09:34:07;27.05;;;11.80;;
69197;SDS011;56311;50.298;8.514;2022-12-18T09:36:35;28.42;;;13.73;;
69197;SDS011;56311;50.298;8.514;2022-12-18T09:39:02;24.73;;;10.85;;
69197;SDS011;56311;50.298;8.514;2022-12-18T09:41:39;19.80;;;10.00;;
69197;SDS011;56311;50.298;8.514;2022-12-18T09:44:12;22.58;;;11.48;;
69197;SDS011;56311;50.298;8.514;2022-12-18T09:46:44;25.23;;;11.32;;
69197;SDS011;56311;50.298;8.514;2022-12-18T09:49:17;25.42;;;12.10;;
69197;SDS011;56311;50.298;8.514;2022-12-18T09:51:50;25.77;;;12.60;;
69197;SDS011;56311;50.298;8.514;2022-12-18T09:54:21;25.15;;;12.35;;
69197;SDS011;56311;50.298;8.514;2022-12-18T09:56:52;23.85;;;11.48;;
69197;SDS011;56311;50.298;8.514;2022-12-18T09:59:21;26.35;;;13.13;;
69197;SDS011;56311;50.298;8.514;2022-12-18T10:01:50;24.15;;;11.52;;
69197;SDS011;56311;50.298;8.514;2022-12-18T10:04:17;27.05;;;12.60;;
69197;SDS011;56311;50.298;8.514;2022-12-18T10:06:46;26.27;;;12.30;;
69197;SDS011;56311;50.298;8.514;2022-12-18T10:09:21;26.17;;;12.35;;
69197;SDS011;56311;50.298;8.514;2022-12-18T10:11:54;29.63;;;13.80;;
69197;SDS011;56311;50.298;8.514;2022-12-18T10:14:34;27.35;;;12.80;;
69197;SDS011;56311;50.298;8.514;2022-12-18T10:17:09;27.60;;;13.88;;
69197;SDS011;56311;50.298;8.514;2022-12-18T10:19:45;27.92;;;14.18;;
69197;SDS011;56311;50.298;8.514;2022-12-18T10:22:25;26.20;;;13.27;;
69197;SDS011;56311;50.298;8.514;2022-12-18T10:25:03;27.70;;;14.18;;
69197;SDS011;56311;50.298;8.514;2022-12-18T10:27:43;27.83;;;13.43;;
69197;SDS011;56311;50.298;8.514;2022-12-18T10:30:12;29.85;;;14.13;;
69197;SDS011;56311;50.298;8.514;2022-12-18T10:32:41;26.88;;;13.35;;
69197;SDS011;56311;50.298;8.514;2022-12-18T10:35:15;26.83;;;14.05;;
69197;SDS011;56311;50.298;8.514;2022-12-18T10:38:00;29.38;;;13.30;;
69197;SDS011;56311;50.298;8.514;2022-12-18T10:40:49;29.40;;;14.93;;
69197;SDS011;56311;50.298;8.514;2022-12-18T10:43:19;30.02;;;15.00;;
69197;SDS011;56311;50.298;8.514;2022-12-18T10:45:57;31.88;;;14.13;;
69197;SDS011;56311;50.298;8.514;2022-12-18T10:48:33;34.63;;;15.60;;
69197;SDS011;56311;50.298;8.514;2022-12-18T10:51:03;33.92;;;16.30;;
69197;SDS011;56311;50.298;8.514;2022-12-18T10:53:41;33.00;;;15.48;;
69197;SDS011;56311;50.298;8.514;2022-12-18T10:56:10;32.78;;;15.60;;
69197;SDS011;56311;50.298;8.514;2022-12-18T10:58:38;36.03;;;16.80;;
69197;SDS011;56311;50.298;8.514;2022-12-18T11:01:08;33.92;;;16.10;;
69197;SDS011;56311;50.298;8.514;2022-12-18T11:03:38;34.75;;;16.45;;
69197;SDS011;56311;50.298;8.514;2022-12-18T11:06:09;38.00;;;18.02;;
69197;SDS011;56311;50.298;8.514;2022-12-18T11:08:37;36.13;;;17.92;;
69197;SDS011;56311;50.298;8.514;2022-12-18T11:11:15;35.83;;;17.55;;
69197;SDS011;56311;50.298;8.514;2022-12-18T11:13:49;38.50;;;18.23;;
69197;SDS011;56311;50.298;8.514;2022-12-18T11:16:24;41.28;;;19.35;;
69197;SDS011;56311;50.298;8.514;2022-12-18T11:18:53;37.70;;;17.52;;
69197;SDS011;56311;50.298;8.514;2022-12-18T11:21:22;43.08;;;19.92;;
69197;SDS011;56311;50.298;8.514;2022-12-18T11:23:49;37.65;;;18.23;;
69197;SDS011;56311;50.298;8.514;2022-12-18T11:26:19;39.58;;;18.35;;
69197;SDS011;56311;50.298;8.514;2022-12-18T11:28:49;42.13;;;19.05;;
69197;SDS011;56311;50.298;8.514;2022-12-18T11:31:19;40.25;;;19.20;;
69197;SDS011;56311;50.298;8.514;2022-12-18T11:33:54;43.85;;;21.30;;
69197;SDS011;56311;50.298;8.514;2022-12-18T11:36:46;42.65;;;20.95;;
69197;SDS011;56311;50.298;8.514;2022-12-18T11:39:15;49.28;;;23.85;;
69197;SDS011;56311;50.298;8.514;2022-12-18T11:41:50;39.97;;;19.60;;
69197;SDS011;56311;50.298;8.514;2022-12-18T11:44:40;42.90;;;19.75;;
69197;SDS011;56311;50.298;8.514;2022-12-18T11:49:47;42.08;;;18.85;;
69197;SDS011;56311;50.298;8.514;2022-12-18T11:52:17;44.60;;;20.80;;
69197;SDS011;56311;50.298;8.514;2022-12-18T11:54:50;42.97;;;19.85;;
69197;SDS011;56311;50.298;8.514;2022-12-18T11:57:22;43.38;;;20.60;;
69197;SDS011;56311;50.298;8.514;2022-12-18T12:00:03;43.20;;;20.70;;
69197;SDS011;56311;50.298;8.514;2022-12-18T12:02:42;45.78;;;20.63;;
69197;SDS011;56311;50.298;8.514;2022-12-18T12:05:37;47.17;;;21.52;;
69197;SDS011;56311;50.298;8.514;2022-12-18T12:08:15;43.83;;;19.52;;
69197;SDS011;56311;50.298;8.514;2022-12-18T12:10:51;42.75;;;20.58;;
69197;SDS011;56311;50.298;8.514;2022-12-18T12:13:32;44.45;;;20.58;;
69197;SDS011;56311;50.298;8.514;2022-12-18T12:16:15;44.83;;;20.27;;
69197;SDS011;56311;50.298;8.514;2022-12-18T12:18:48;43.35;;;19.45;;
69197;SDS011;56311;50.298;8.514;2022-12-18T12:21:26;43.83;;;21.00;;
69197;SDS011;56311;50.298;8.514;2022-12-18T12:24:00;46.60;;;20.52;;
69197;SDS011;56311;50.298;8.514;2022-12-18T12:26:35;44.20;;;20.30;;
69197;SDS011;56311;50.298;8.514;2022-12-18T12:29:18;42.50;;;20.55;;
69197;SDS011;56311;50.298;8.514;2022-12-18T12:32:00;42.00;;;19.08;;
69197;SDS011;56311;50.298;8.514;2022-12-18T12:34:40;44.08;;;19.65;;
69197;SDS011;56311;50.298;8.514;2022-12-18T12:37:24;49.13;;;20.00;;
69197;SDS011;56311;50.298;8.514;2022-12-18T12:40:03;47.08;;;20.67;;
69197;SDS011;56311;50.298;8.514;2022-12-18T12:42:51;44.85;;;20.17;;
69197;SDS011;56311;50.298;8.514;2022-12-18T12:45:44;45.92;;;21.08;;
69197;SDS011;56311;50.298;8.514;2022-12-18T12:48:16;48.55;;;21.95;;
69197;SDS011;56311;50.298;8.514;2022-12-18T12:50:51;41.28;;;19.25;;
69197;SDS011;56311;50.298;8.514;2022-12-18T12:53:22;44.90;;;19.77;;
69197;SDS011;56311;50.298;8.514;2022-12-18T12:55:53;46.63;;;19.98;;
69197;SDS011;56311;50.298;8.514;2022-12-18T12:58:23;42.72;;;20.30;;
69197;SDS011;56311;50.298;8.514;2022-12-18T13:01:01;51.03;;;21.65;;
69197;SDS011;56311;50.298;8.514;2022-12-18T13:03:52;43.50;;;20.67;;
69197;SDS011;56311;50.298;8.514;2022-12-18T13:06:29;48.15;;;20.40;;
69197;SDS011;56311;50.298;8.514;2022-12-18T13:09:24;44.45;;;20.58;;
69197;SDS011;56311;50.298;8.514;2022-12-18T13:11:51;40.53;;;18.98;;
69197;SDS011;56311;50.298;8.514;2022-12-18T13:14:37;45.35;;;20.40;;
69197;SDS011;56311;50.298;8.514;2022-12-18T13:20:04;46.30;;;20.58;;
69197;SDS011;56311;50.298;8.514;2022-12-18T13:22:38;47.83;;;20.90;;
69197;SDS011;56311;50.298;8.514;2022-12-18T13:27:57;48.30;;;20.67;;
69197;SDS011;56311;50.298;8.514;2022-12-18T13:30:47;51.38;;;21.17;;
69197;SDS011;56311;50.298;8.514;2022-12-18T13:33:39;53.92;;;22.67;;
69197;SDS011;56311;50.298;8.514;2022-12-18T13:36:31;52.10;;;21.00;;
69197;SDS011;56311;50.298;8.514;2022-12-18T13:39:22;51.28;;;21.88;;
69197;SDS011;56311;50.298;8.514;2022-12-18T13:45:40;47.78;;;20.98;;
69197;SDS011;56311;50.298;8.514;2022-12-18T13:48:16;53.13;;;21.65;;
69197;SDS011;56311;50.298;8.514;2022-12-18T13:50:49;47.53;;;21.42;;
69197;SDS011;56311;50.298;8.514;2022-12-18T13:53:20;55.30;;;22.42;;
69197;SDS011;56311;50.298;8.514;2022-12-18T13:55:50;48.83;;;20.83;;
69197;SDS011;56311;50.298;8.514;2022-12-18T13:58:18;53.53;;;22.70;;
69197;SDS011;56311;50.298;8.514;2022-12-18T14:00:45;48.05;;;21.40;;
69197;SDS011;56311;50.298;8.514;2022-12-18T14:03:17;47.15;;;21.27;;
69197;SDS011;56311;50.298;8.514;2022-12-18T14:05:53;53.90;;;23.02;;
69197;SDS011;56311;50.298;8.514;2022-12-18T14:08:25;50.70;;;20.00;;
69197;SDS011;56311;50.298;8.514;2022-12-18T14:11:01;62.90;;;27.10;;
69197;SDS011;56311;50.298;8.514;2022-12-18T14:13:31;63.05;;;25.65;;
69197;SDS011;56311;50.298;8.514;2022-12-18T14:16:00;54.28;;;22.02;;
69197;SDS011;56311;50.298;8.514;2022-12-18T14:18:31;54.88;;;21.60;;
69197;SDS011;56311;50.298;8.514;2022-12-18T14:21:13;50.58;;;21.20;;
69197;SDS011;56311;50.298;8.514;2022-12-18T14:23:44;53.10;;;22.85;;
69197;SDS011;56311;50.298;8.514;2022-12-18T14:26:21;53.33;;;22.35;;
69197;SDS011;56311;50.298;8.514;2022-12-18T14:28:50;49.63;;;22.02;;
69197;SDS011;56311;50.298;8.514;2022-12-18T14:31:18;50.97;;;21.58;;
69197;SDS011;56311;50.298;8.514;2022-12-18T14:33:46;46.40;;;20.88;;
69197;SDS011;56311;50.298;8.514;2022-12-18T14:36:16;51.67;;;21.88;;
69197;SDS011;56311;50.298;8.514;2022-12-18T14:38:47;49.53;;;20.83;;
69197;SDS011;56311;50.298;8.514;2022-12-18T14:41:16;54.88;;;21.52;;
69197;SDS011;56311;50.298;8.514;2022-12-18T14:43:45;58.70;;;23.00;;
69197;SDS011;56311;50.298;8.514;2022-12-18T14:46:30;52.72;;;22.30;;
69197;SDS011;56311;50.298;8.514;2022-12-18T14:49:01;56.35;;;22.48;;
69197;SDS011;56311;50.298;8.514;2022-12-18T14:51:32;53.60;;;23.45;;
69197;SDS011;56311;50.298;8.514;2022-12-18T14:54:01;59.92;;;24.48;;
69197;SDS011;56311;50.298;8.514;2022-12-18T14:56:30;54.85;;;22.00;;
69197;SDS011;56311;50.298;8.514;2022-12-18T14:59:00;56.17;;;21.88;;
69197;SDS011;56311;50.298;8.514;2022-12-18T15:01:29;49.58;;;19.77;;
69197;SDS011;56311;50.298;8.514;2022-12-18T15:03:59;54.83;;;22.25;;